sensor_id;sensor_type;location;lat;lon;timestamp;P1;durP1;ratioP1;P2;durP2;ratioP2
64932;SDS011;51446;53.850;10.662;2023-09-30T00:00:23;14.53;;;3.10;;
64932;SDS011;51446;53.850;10.662;2023-09-30T00:02:49;16.90;;;3.03;;
64932;SDS011;51446;53.850;10.662;2023-09-30T00:05:15;13.45;;;3.05;;
64932;SDS011;51446;53.850;10.662;2023-09-30T00:07:40;17.87;;;3.17;;
64932;SDS011;51446;53.850;10.662;2023-09-30T00:10:05;14.47;;;3.00;;
64932;SDS011;51446;53.850;10.662;2023-09-30T00:12:31;15.85;;;3.55;;
64932;SDS011;51446;53.850;10.662;2023-09-30T00:14:58;13.37;;;2.53;;
64932;SDS011;51446;53.850;10.662;2023-09-30T00:17:23;18.08;;;3.95;;
64932;SDS011;51446;53.850;10.662;2023-09-30T00:19:48;9.47;;;2.73;;
64932;SDS011;51446;53.850;10.662;2023-09-30T00:22:14;13.13;;;3.20;;
64932;SDS011;51446;53.850;10.662;2023-09-30T00:24:39;18.90;;;3.73;;
64932;SDS011;51446;53.850;10.662;2023-09-30T00:27:04;17.03;;;3.33;;
64932;SDS011;51446;53.850;10.662;2023-09-30T00:29:30;13.13;;;2.90;;
64932;SDS011;51446;53.850;10.662;2023-09-30T00:31:55;11.80;;;3.00;;
64932;SDS011;51446;53.850;10.662;2023-09-30T00:34:20;16.73;;;3.60;;
64932;SDS011;51446;53.850;10.662;2023-09-30T00:36:46;13.23;;;2.83;;
64932;SDS011;51446;53.850;10.662;2023-09-30T00:39:12;13.13;;;3.03;;
64932;SDS011;51446;53.850;10.662;2023-09-30T00:41:40;12.53;;;4.00;;
64932;SDS011;51446;53.850;10.662;2023-09-30T00:44:05;14.63;;;3.50;;
64932;SDS011;51446;53.850;10.662;2023-09-30T00:46:32;10.23;;;2.70;;
64932;SDS011;51446;53.850;10.662;2023-09-30T00:48:58;19.05;;;3.28;;
64932;SDS011;51446;53.850;10.662;2023-09-30T00:51:25;15.00;;;2.90;;
64932;SDS011;51446;53.850;10.662;2023-09-30T00:53:51;12.40;;;2.80;;
64932;SDS011;51446;53.850;10.662;2023-09-30T00:56:18;13.25;;;2.90;;
64932;SDS011;51446;53.850;10.662;2023-09-30T00:58:45;13.80;;;2.83;;
64932;SDS011;51446;53.850;10.662;2023-09-30T01:01:12;16.58;;;3.30;;
64932;SDS011;51446;53.850;10.662;2023-09-30T01:03:37;14.87;;;3.53;;
64932;SDS011;51446;53.850;10.662;2023-09-30T01:06:03;18.93;;;3.30;;
64932;SDS011;51446;53.850;10.662;2023-09-30T01:08:28;14.70;;;3.65;;
64932;SDS011;51446;53.850;10.662;2023-09-30T01:10:54;20.42;;;3.45;;
64932;SDS011;51446;53.850;10.662;2023-09-30T01:13:20;12.03;;;3.03;;
64932;SDS011;51446;53.850;10.662;2023-09-30T01:15:45;15.10;;;3.50;;
64932;SDS011;51446;53.850;10.662;2023-09-30T01:18:12;13.70;;;3.60;;
64932;SDS011;51446;53.850;10.662;2023-09-30T01:20:37;11.97;;;2.87;;
64932;SDS011;51446;53.850;10.662;2023-09-30T01:23:02;16.73;;;3.70;;
64932;SDS011;51446;53.850;10.662;2023-09-30T01:25:28;16.63;;;3.08;;
64932;SDS011;51446;53.850;10.662;2023-09-30T01:27:54;13.38;;;3.35;;
64932;SDS011;51446;53.850;10.662;2023-09-30T01:30:19;12.47;;;3.43;;
64932;SDS011;51446;53.850;10.662;2023-09-30T01:32:47;12.27;;;2.93;;
64932;SDS011;51446;53.850;10.662;2023-09-30T01:35:13;12.75;;;2.70;;
64932;SDS011;51446;53.850;10.662;2023-09-30T01:37:38;13.93;;;3.00;;
64932;SDS011;51446;53.850;10.662;2023-09-30T01:40:04;15.47;;;3.33;;
64932;SDS011;51446;53.850;10.662;2023-09-30T01:42:32;11.82;;;2.95;;
64932;SDS011;51446;53.850;10.662;2023-09-30T01:44:58;11.97;;;2.80;;
64932;SDS011;51446;53.850;10.662;2023-09-30T01:47:23;9.13;;;2.53;;
64932;SDS011;51446;53.850;10.662;2023-09-30T01:49:48;16.37;;;2.70;;
64932;SDS011;51446;53.850;10.662;2023-09-30T01:52:14;10.45;;;2.80;;
64932;SDS011;51446;53.850;10.662;2023-09-30T01:54:39;13.67;;;2.67;;
64932;SDS011;51446;53.850;10.662;2023-09-30T01:57:05;10.57;;;2.93;;
64932;SDS011;51446;53.850;10.662;2023-09-30T01:59:30;13.23;;;2.93;;
64932;SDS011;51446;53.850;10.662;2023-09-30T02:01:55;12.37;;;2.77;;
64932;SDS011;51446;53.850;10.662;2023-09-30T02:04:20;13.27;;;3.20;;
64932;SDS011;51446;53.850;10.662;2023-09-30T02:06:45;12.67;;;2.93;;
64932;SDS011;51446;53.850;10.662;2023-09-30T02:09:11;11.33;;;3.03;;
64932;SDS011;51446;53.850;10.662;2023-09-30T02:11:37;16.65;;;3.20;;
64932;SDS011;51446;53.850;10.662;2023-09-30T02:14:04;12.37;;;2.60;;
64932;SDS011;51446;53.850;10.662;2023-09-30T02:16:31;15.75;;;3.38;;
64932;SDS011;51446;53.850;10.662;2023-09-30T02:18:56;8.10;;;2.70;;
64932;SDS011;51446;53.850;10.662;2023-09-30T02:21:21;10.47;;;2.93;;
64932;SDS011;51446;53.850;10.662;2023-09-30T02:23:47;12.20;;;2.72;;
64932;SDS011;51446;53.850;10.662;2023-09-30T02:26:19;13.03;;;3.50;;
64932;SDS011;51446;53.850;10.662;2023-09-30T02:28:45;10.93;;;2.35;;
64932;SDS011;51446;53.850;10.662;2023-09-30T02:31:10;15.18;;;3.35;;
64932;SDS011;51446;53.850;10.662;2023-09-30T02:33:35;14.37;;;2.40;;
64932;SDS011;51446;53.850;10.662;2023-09-30T02:36:02;9.17;;;2.77;;
64932;SDS011;51446;53.850;10.662;2023-09-30T02:38:30;14.75;;;3.08;;
64932;SDS011;51446;53.850;10.662;2023-09-30T02:40:56;14.88;;;3.17;;
64932;SDS011;51446;53.850;10.662;2023-09-30T02:43:22;12.23;;;3.37;;
64932;SDS011;51446;53.850;10.662;2023-09-30T02:45:47;16.13;;;3.20;;
64932;SDS011;51446;53.850;10.662;2023-09-30T02:48:12;16.15;;;2.85;;
64932;SDS011;51446;53.850;10.662;2023-09-30T02:50:38;14.77;;;3.30;;
64932;SDS011;51446;53.850;10.662;2023-09-30T02:53:05;10.93;;;3.47;;
64932;SDS011;51446;53.850;10.662;2023-09-30T02:55:30;13.77;;;2.87;;
64932;SDS011;51446;53.850;10.662;2023-09-30T02:57:56;13.27;;;3.03;;
64932;SDS011;51446;53.850;10.662;2023-09-30T03:00:22;14.43;;;3.00;;
64932;SDS011;51446;53.850;10.662;2023-09-30T03:02:48;10.63;;;3.10;;
64932;SDS011;51446;53.850;10.662;2023-09-30T03:05:14;10.13;;;2.88;;
64932;SDS011;51446;53.850;10.662;2023-09-30T03:07:40;13.05;;;2.92;;
64932;SDS011;51446;53.850;10.662;2023-09-30T03:10:06;12.00;;;3.40;;
64932;SDS011;51446;53.850;10.662;2023-09-30T03:12:33;13.17;;;2.80;;
64932;SDS011;51446;53.850;10.662;2023-09-30T03:14:59;11.55;;;3.10;;
64932;SDS011;51446;53.850;10.662;2023-09-30T03:17:24;12.47;;;2.90;;
64932;SDS011;51446;53.850;10.662;2023-09-30T03:19:50;16.13;;;2.97;;
64932;SDS011;51446;53.850;10.662;2023-09-30T03:22:16;11.77;;;2.60;;
64932;SDS011;51446;53.850;10.662;2023-09-30T03:24:41;13.90;;;2.73;;
64932;SDS011;51446;53.850;10.662;2023-09-30T03:27:07;15.88;;;3.00;;
64932;SDS011;51446;53.850;10.662;2023-09-30T03:29:35;13.10;;;3.30;;
64932;SDS011;51446;53.850;10.662;2023-09-30T03:32:00;9.75;;;2.80;;
64932;SDS011;51446;53.850;10.662;2023-09-30T03:34:26;11.47;;;2.70;;
64932;SDS011;51446;53.850;10.662;2023-09-30T03:36:51;11.77;;;2.67;;
64932;SDS011;51446;53.850;10.662;2023-09-30T03:39:19;9.70;;;2.70;;
64932;SDS011;51446;53.850;10.662;2023-09-30T03:41:51;12.00;;;2.63;;
64932;SDS011;51446;53.850;10.662;2023-09-30T03:44:17;10.70;;;2.77;;
64932;SDS011;51446;53.850;10.662;2023-09-30T03:46:42;10.00;;;2.53;;
64932;SDS011;51446;53.850;10.662;2023-09-30T03:49:08;10.67;;;2.23;;
64932;SDS011;51446;53.850;10.662;2023-09-30T03:51:33;11.95;;;2.72;;
64932;SDS011;51446;53.850;10.662;2023-09-30T03:53:58;12.17;;;3.00;;
64932;SDS011;51446;53.850;10.662;2023-09-30T03:56:23;10.17;;;2.87;;
64932;SDS011;51446;53.850;10.662;2023-09-30T03:58:49;13.30;;;3.03;;
64932;SDS011;51446;53.850;10.662;2023-09-30T04:01:14;11.93;;;2.80;;
64932;SDS011;51446;53.850;10.662;2023-09-30T04:03:40;17.00;;;3.33;;
64932;SDS011;51446;53.850;10.662;2023-09-30T04:06:05;8.93;;;2.85;;
64932;SDS011;51446;53.850;10.662;2023-09-30T04:08:34;9.37;;;2.47;;
64932;SDS011;51446;53.850;10.662;2023-09-30T04:11:00;13.88;;;2.90;;
64932;SDS011;51446;53.850;10.662;2023-09-30T04:13:26;10.23;;;2.83;;
64932;SDS011;51446;53.850;10.662;2023-09-30T04:15:52;10.23;;;2.77;;
64932;SDS011;51446;53.850;10.662;2023-09-30T04:18:18;13.68;;;2.80;;
64932;SDS011;51446;53.850;10.662;2023-09-30T04:20:45;16.65;;;3.30;;
64932;SDS011;51446;53.850;10.662;2023-09-30T04:23:12;19.30;;;3.00;;
64932;SDS011;51446;53.850;10.662;2023-09-30T04:25:38;19.23;;;2.90;;
64932;SDS011;51446;53.850;10.662;2023-09-30T04:28:04;10.02;;;2.55;;
64932;SDS011;51446;53.850;10.662;2023-09-30T04:30:30;12.57;;;2.80;;
64932;SDS011;51446;53.850;10.662;2023-09-30T04:32:57;12.15;;;2.97;;
64932;SDS011;51446;53.850;10.662;2023-09-30T04:35:23;15.73;;;3.30;;
64932;SDS011;51446;53.850;10.662;2023-09-30T04:37:50;14.57;;;2.75;;
64932;SDS011;51446;53.850;10.662;2023-09-30T04:40:16;13.25;;;2.40;;
64932;SDS011;51446;53.850;10.662;2023-09-30T04:42:44;18.80;;;2.80;;
64932;SDS011;51446;53.850;10.662;2023-09-30T04:45:11;11.38;;;3.25;;
64932;SDS011;51446;53.850;10.662;2023-09-30T04:47:37;12.18;;;3.28;;
64932;SDS011;51446;53.850;10.662;2023-09-30T04:50:05;10.90;;;2.90;;
64932;SDS011;51446;53.850;10.662;2023-09-30T04:52:32;15.45;;;3.35;;
64932;SDS011;51446;53.850;10.662;2023-09-30T04:54:57;11.00;;;2.97;;
64932;SDS011;51446;53.850;10.662;2023-09-30T04:57:24;18.70;;;3.80;;
64932;SDS011;51446;53.850;10.662;2023-09-30T04:59:50;9.35;;;2.92;;
64932;SDS011;51446;53.850;10.662;2023-09-30T05:02:16;13.40;;;3.03;;
64932;SDS011;51446;53.850;10.662;2023-09-30T05:04:41;15.03;;;3.70;;
64932;SDS011;51446;53.850;10.662;2023-09-30T05:07:07;16.33;;;3.22;;
64932;SDS011;51446;53.850;10.662;2023-09-30T05:09:32;12.87;;;3.10;;
64932;SDS011;51446;53.850;10.662;2023-09-30T05:11:58;14.33;;;3.10;;
64932;SDS011;51446;53.850;10.662;2023-09-30T05:14:23;13.90;;;2.93;;
64932;SDS011;51446;53.850;10.662;2023-09-30T05:16:48;16.50;;;3.00;;
64932;SDS011;51446;53.850;10.662;2023-09-30T05:19:14;12.27;;;3.10;;
64932;SDS011;51446;53.850;10.662;2023-09-30T05:21:39;17.60;;;2.90;;
64932;SDS011;51446;53.850;10.662;2023-09-30T05:24:04;13.97;;;2.90;;
64932;SDS011;51446;53.850;10.662;2023-09-30T05:26:30;12.05;;;2.90;;
64932;SDS011;51446;53.850;10.662;2023-09-30T05:28:55;13.57;;;3.00;;
64932;SDS011;51446;53.850;10.662;2023-09-30T05:31:21;10.47;;;2.87;;
64932;SDS011;51446;53.850;10.662;2023-09-30T05:33:46;10.97;;;2.73;;
64932;SDS011;51446;53.850;10.662;2023-09-30T05:36:11;11.93;;;2.57;;
64932;SDS011;51446;53.850;10.662;2023-09-30T05:38:38;12.52;;;2.75;;
64932;SDS011;51446;53.850;10.662;2023-09-30T05:41:03;9.73;;;2.93;;
64932;SDS011;51446;53.850;10.662;2023-09-30T05:43:31;11.25;;;2.90;;
64932;SDS011;51446;53.850;10.662;2023-09-30T05:45:57;19.25;;;3.40;;
64932;SDS011;51446;53.850;10.662;2023-09-30T05:48:23;9.47;;;3.23;;
64932;SDS011;51446;53.850;10.662;2023-09-30T05:50:48;12.82;;;2.70;;
64932;SDS011;51446;53.850;10.662;2023-09-30T05:53:14;13.30;;;3.00;;
64932;SDS011;51446;53.850;10.662;2023-09-30T05:55:40;13.65;;;3.30;;
64932;SDS011;51446;53.850;10.662;2023-09-30T05:58:12;10.13;;;2.80;;
64932;SDS011;51446;53.850;10.662;2023-09-30T06:00:39;11.80;;;2.60;;
64932;SDS011;51446;53.850;10.662;2023-09-30T06:03:05;10.45;;;2.45;;
64932;SDS011;51446;53.850;10.662;2023-09-30T06:05:31;13.57;;;3.17;;
64932;SDS011;51446;53.850;10.662;2023-09-30T06:07:57;9.93;;;3.10;;
64932;SDS011;51446;53.850;10.662;2023-09-30T06:10:23;11.27;;;2.85;;
64932;SDS011;51446;53.850;10.662;2023-09-30T06:12:51;9.75;;;2.72;;
64932;SDS011;51446;53.850;10.662;2023-09-30T06:15:21;10.93;;;3.05;;
64932;SDS011;51446;53.850;10.662;2023-09-30T06:17:50;10.63;;;3.07;;
64932;SDS011;51446;53.850;10.662;2023-09-30T06:20:19;14.27;;;3.00;;
64932;SDS011;51446;53.850;10.662;2023-09-30T06:22:47;10.80;;;3.00;;
64932;SDS011;51446;53.850;10.662;2023-09-30T06:25:14;13.38;;;3.10;;
64932;SDS011;51446;53.850;10.662;2023-09-30T06:27:41;13.77;;;3.15;;
64932;SDS011;51446;53.850;10.662;2023-09-30T06:30:07;12.43;;;2.87;;
64932;SDS011;51446;53.850;10.662;2023-09-30T06:32:34;12.27;;;2.53;;
64932;SDS011;51446;53.850;10.662;2023-09-30T06:35:00;13.95;;;2.60;;
64932;SDS011;51446;53.850;10.662;2023-09-30T06:37:25;14.60;;;3.53;;
64932;SDS011;51446;53.850;10.662;2023-09-30T06:39:51;15.23;;;3.03;;
64932;SDS011;51446;53.850;10.662;2023-09-30T06:42:17;14.57;;;2.97;;
64932;SDS011;51446;53.850;10.662;2023-09-30T06:44:42;9.73;;;2.70;;
64932;SDS011;51446;53.850;10.662;2023-09-30T06:47:07;11.57;;;3.10;;
64932;SDS011;51446;53.850;10.662;2023-09-30T06:49:37;15.63;;;2.95;;
64932;SDS011;51446;53.850;10.662;2023-09-30T06:52:02;8.03;;;2.30;;
64932;SDS011;51446;53.850;10.662;2023-09-30T06:54:28;9.70;;;2.28;;
64932;SDS011;51446;53.850;10.662;2023-09-30T06:56:53;9.30;;;2.43;;
64932;SDS011;51446;53.850;10.662;2023-09-30T06:59:19;11.87;;;2.63;;
64932;SDS011;51446;53.850;10.662;2023-09-30T07:01:44;8.00;;;2.17;;
64932;SDS011;51446;53.850;10.662;2023-09-30T07:04:09;10.53;;;2.17;;
64932;SDS011;51446;53.850;10.662;2023-09-30T07:06:36;14.40;;;2.57;;
64932;SDS011;51446;53.850;10.662;2023-09-30T07:09:01;6.95;;;2.25;;
64932;SDS011;51446;53.850;10.662;2023-09-30T07:11:27;12.37;;;2.47;;
64932;SDS011;51446;53.850;10.662;2023-09-30T07:13:58;10.73;;;2.63;;
64932;SDS011;51446;53.850;10.662;2023-09-30T07:16:23;13.40;;;2.33;;
64932;SDS011;51446;53.850;10.662;2023-09-30T07:18:48;7.67;;;2.50;;
64932;SDS011;51446;53.850;10.662;2023-09-30T07:21:15;11.27;;;2.60;;
64932;SDS011;51446;53.850;10.662;2023-09-30T07:23:40;12.23;;;2.40;;
64932;SDS011;51446;53.850;10.662;2023-09-30T07:26:06;10.67;;;2.57;;
64932;SDS011;51446;53.850;10.662;2023-09-30T07:28:31;9.93;;;2.47;;
64932;SDS011;51446;53.850;10.662;2023-09-30T07:30:58;10.75;;;2.20;;
64932;SDS011;51446;53.850;10.662;2023-09-30T07:33:23;7.90;;;2.00;;
64932;SDS011;51446;53.850;10.662;2023-09-30T07:35:48;11.97;;;2.30;;
64932;SDS011;51446;53.850;10.662;2023-09-30T07:38:14;10.85;;;1.85;;
64932;SDS011;51446;53.850;10.662;2023-09-30T07:40:39;12.23;;;2.20;;
64932;SDS011;51446;53.850;10.662;2023-09-30T07:43:04;10.77;;;1.93;;
64932;SDS011;51446;53.850;10.662;2023-09-30T07:45:30;10.43;;;2.37;;
64932;SDS011;51446;53.850;10.662;2023-09-30T07:47:55;9.23;;;2.00;;
64932;SDS011;51446;53.850;10.662;2023-09-30T07:50:20;11.00;;;2.13;;
64932;SDS011;51446;53.850;10.662;2023-09-30T07:52:45;9.53;;;2.50;;
64932;SDS011;51446;53.850;10.662;2023-09-30T07:55:11;11.47;;;1.90;;
64932;SDS011;51446;53.850;10.662;2023-09-30T07:57:38;9.85;;;2.30;;
64932;SDS011;51446;53.850;10.662;2023-09-30T08:00:06;11.50;;;2.83;;
64932;SDS011;51446;53.850;10.662;2023-09-30T08:02:34;11.53;;;2.00;;
64932;SDS011;51446;53.850;10.662;2023-09-30T08:04:59;11.63;;;2.17;;
64932;SDS011;51446;53.850;10.662;2023-09-30T08:07:25;9.65;;;1.88;;
64932;SDS011;51446;53.850;10.662;2023-09-30T08:09:51;10.40;;;2.40;;
64932;SDS011;51446;53.850;10.662;2023-09-30T08:12:16;11.57;;;1.97;;
64932;SDS011;51446;53.850;10.662;2023-09-30T08:14:42;8.60;;;1.87;;
64932;SDS011;51446;53.850;10.662;2023-09-30T08:17:09;9.07;;;1.90;;
64932;SDS011;51446;53.850;10.662;2023-09-30T08:19:35;8.02;;;1.73;;
64932;SDS011;51446;53.850;10.662;2023-09-30T08:22:00;8.13;;;2.10;;
64932;SDS011;51446;53.850;10.662;2023-09-30T08:24:28;9.37;;;1.90;;
64932;SDS011;51446;53.850;10.662;2023-09-30T08:26:53;11.57;;;2.17;;
64932;SDS011;51446;53.850;10.662;2023-09-30T08:29:21;10.77;;;2.45;;
64932;SDS011;51446;53.850;10.662;2023-09-30T08:31:47;5.37;;;1.60;;
64932;SDS011;51446;53.850;10.662;2023-09-30T08:34:12;7.40;;;1.80;;
64932;SDS011;51446;53.850;10.662;2023-09-30T08:36:39;17.63;;;2.40;;
64932;SDS011;51446;53.850;10.662;2023-09-30T08:39:05;9.23;;;2.10;;
64932;SDS011;51446;53.850;10.662;2023-09-30T08:41:30;8.17;;;2.00;;
64932;SDS011;51446;53.850;10.662;2023-09-30T08:44:00;13.07;;;1.83;;
64932;SDS011;51446;53.850;10.662;2023-09-30T08:46:28;12.77;;;1.98;;
64932;SDS011;51446;53.850;10.662;2023-09-30T08:48:57;8.60;;;1.60;;
64932;SDS011;51446;53.850;10.662;2023-09-30T08:51:25;9.20;;;1.77;;
64932;SDS011;51446;53.850;10.662;2023-09-30T08:53:51;12.17;;;1.73;;
64932;SDS011;51446;53.850;10.662;2023-09-30T08:56:18;8.20;;;1.73;;
64932;SDS011;51446;53.850;10.662;2023-09-30T08:58:46;6.17;;;1.57;;
64932;SDS011;51446;53.850;10.662;2023-09-30T09:01:12;13.48;;;2.33;;
64932;SDS011;51446;53.850;10.662;2023-09-30T09:03:37;9.13;;;1.87;;
64932;SDS011;51446;53.850;10.662;2023-09-30T09:06:04;9.20;;;1.63;;
64932;SDS011;51446;53.850;10.662;2023-09-30T09:08:29;8.00;;;1.70;;
64932;SDS011;51446;53.850;10.662;2023-09-30T09:10:58;8.37;;;1.53;;
64932;SDS011;51446;53.850;10.662;2023-09-30T09:13:25;10.85;;;1.30;;
64932;SDS011;51446;53.850;10.662;2023-09-30T09:16:09;12.18;;;1.55;;
64932;SDS011;51446;53.850;10.662;2023-09-30T09:18:35;7.57;;;1.65;;
64932;SDS011;51446;53.850;10.662;2023-09-30T09:21:34;8.17;;;1.17;;
64932;SDS011;51446;53.850;10.662;2023-09-30T09:23:53;10.38;;;1.60;;
64932;SDS011;51446;53.850;10.662;2023-09-30T09:26:29;8.70;;;1.55;;
64932;SDS011;51446;53.850;10.662;2023-09-30T09:28:59;9.07;;;1.55;;
64932;SDS011;51446;53.850;10.662;2023-09-30T09:31:26;6.15;;;1.30;;
64932;SDS011;51446;53.850;10.662;2023-09-30T09:33:53;10.13;;;1.63;;
64932;SDS011;51446;53.850;10.662;2023-09-30T09:36:18;8.50;;;1.50;;
64932;SDS011;51446;53.850;10.662;2023-09-30T09:41:18;10.68;;;1.67;;
64932;SDS011;51446;53.850;10.662;2023-09-30T09:43:44;9.60;;;1.45;;
64932;SDS011;51446;53.850;10.662;2023-09-30T09:46:13;5.78;;;1.20;;
64932;SDS011;51446;53.850;10.662;2023-09-30T09:48:39;6.37;;;1.50;;
64932;SDS011;51446;53.850;10.662;2023-09-30T09:51:04;11.70;;;1.50;;
64932;SDS011;51446;53.850;10.662;2023-09-30T09:53:35;5.47;;;1.23;;
64932;SDS011;51446;53.850;10.662;2023-09-30T09:56:02;9.25;;;1.85;;
64932;SDS011;51446;53.850;10.662;2023-09-30T09:58:30;9.40;;;1.50;;
64932;SDS011;51446;53.850;10.662;2023-09-30T10:00:58;7.30;;;1.30;;
64932;SDS011;51446;53.850;10.662;2023-09-30T10:03:25;8.02;;;1.25;;
64932;SDS011;51446;53.850;10.662;2023-09-30T10:05:51;9.43;;;1.20;;
64932;SDS011;51446;53.850;10.662;2023-09-30T10:08:17;8.18;;;1.20;;
64932;SDS011;51446;53.850;10.662;2023-09-30T10:10:46;8.02;;;1.30;;
64932;SDS011;51446;53.850;10.662;2023-09-30T10:19:11;7.07;;;1.40;;
64932;SDS011;51446;53.850;10.662;2023-09-30T10:22:19;8.20;;;1.10;;
64932;SDS011;51446;53.850;10.662;2023-09-30T10:24:49;9.02;;;1.38;;
64932;SDS011;51446;53.850;10.662;2023-09-30T10:29:47;8.68;;;1.35;;
64932;SDS011;51446;53.850;10.662;2023-09-30T10:37:52;10.48;;;1.38;;
64932;SDS011;51446;53.850;10.662;2023-09-30T10:41:05;8.27;;;1.20;;
64932;SDS011;51446;53.850;10.662;2023-09-30T10:43:33;10.60;;;1.48;;
64932;SDS011;51446;53.850;10.662;2023-09-30T10:49:14;5.63;;;1.15;;
64932;SDS011;51446;53.850;10.662;2023-09-30T10:51:41;11.30;;;1.50;;
64932;SDS011;51446;53.850;10.662;2023-09-30T10:54:07;7.70;;;1.43;;
64932;SDS011;51446;53.850;10.662;2023-09-30T10:56:33;9.03;;;1.60;;
64932;SDS011;51446;53.850;10.662;2023-09-30T10:58:58;7.32;;;1.35;;
64932;SDS011;51446;53.850;10.662;2023-09-30T11:01:31;7.93;;;1.50;;
64932;SDS011;51446;53.850;10.662;2023-09-30T11:04:02;13.93;;;1.77;;
64932;SDS011;51446;53.850;10.662;2023-09-30T11:06:30;10.23;;;1.58;;
64932;SDS011;51446;53.850;10.662;2023-09-30T11:08:59;5.10;;;1.60;;
64932;SDS011;51446;53.850;10.662;2023-09-30T11:11:38;9.57;;;1.52;;
64932;SDS011;51446;53.850;10.662;2023-09-30T11:17:01;6.97;;;1.23;;
64932;SDS011;51446;53.850;10.662;2023-09-30T11:19:35;10.20;;;1.43;;
64932;SDS011;51446;53.850;10.662;2023-09-30T11:22:04;7.47;;;1.23;;
64932;SDS011;51446;53.850;10.662;2023-09-30T11:24:30;6.50;;;1.27;;
64932;SDS011;51446;53.850;10.662;2023-09-30T11:27:00;9.38;;;1.55;;
64932;SDS011;51446;53.850;10.662;2023-09-30T11:29:25;10.23;;;1.27;;
64932;SDS011;51446;53.850;10.662;2023-09-30T11:31:51;9.75;;;1.55;;
64932;SDS011;51446;53.850;10.662;2023-09-30T11:34:17;11.17;;;1.63;;
64932;SDS011;51446;53.850;10.662;2023-09-30T11:36:50;7.80;;;1.20;;
64932;SDS011;51446;53.850;10.662;2023-09-30T11:39:21;7.70;;;1.40;;
64932;SDS011;51446;53.850;10.662;2023-09-30T11:41:53;10.50;;;1.53;;
64932;SDS011;51446;53.850;10.662;2023-09-30T11:44:20;7.53;;;1.85;;
64932;SDS011;51446;53.850;10.662;2023-09-30T11:46:52;7.10;;;1.50;;
64932;SDS011;51446;53.850;10.662;2023-09-30T11:49:29;10.77;;;1.50;;
64932;SDS011;51446;53.850;10.662;2023-09-30T11:51:56;4.47;;;1.00;;
64932;SDS011;51446;53.850;10.662;2023-09-30T11:54:28;10.07;;;1.42;;
64932;SDS011;51446;53.850;10.662;2023-09-30T11:57:06;9.48;;;1.20;;
64932;SDS011;51446;53.850;10.662;2023-09-30T11:59:36;7.43;;;1.10;;
64932;SDS011;51446;53.850;10.662;2023-09-30T12:02:02;9.30;;;1.30;;
64932;SDS011;51446;53.850;10.662;2023-09-30T12:04:30;8.93;;;1.48;;
64932;SDS011;51446;53.850;10.662;2023-09-30T12:06:55;8.93;;;1.10;;
64932;SDS011;51446;53.850;10.662;2023-09-30T12:09:22;8.80;;;1.85;;
64932;SDS011;51446;53.850;10.662;2023-09-30T12:11:50;6.85;;;1.42;;
64932;SDS011;51446;53.850;10.662;2023-09-30T12:14:16;9.57;;;1.57;;
64932;SDS011;51446;53.850;10.662;2023-09-30T12:16:41;6.93;;;1.30;;
64932;SDS011;51446;53.850;10.662;2023-09-30T12:19:06;9.50;;;1.20;;
64932;SDS011;51446;53.850;10.662;2023-09-30T12:21:32;7.27;;;1.30;;
64932;SDS011;51446;53.850;10.662;2023-09-30T12:23:59;10.40;;;1.63;;
64932;SDS011;51446;53.850;10.662;2023-09-30T12:26:24;6.35;;;1.65;;
64932;SDS011;51446;53.850;10.662;2023-09-30T12:28:51;4.60;;;1.23;;
64932;SDS011;51446;53.850;10.662;2023-09-30T12:31:16;6.83;;;1.50;;
64932;SDS011;51446;53.850;10.662;2023-09-30T12:33:41;6.23;;;1.50;;
64932;SDS011;51446;53.850;10.662;2023-09-30T12:36:06;10.97;;;1.20;;
64932;SDS011;51446;53.850;10.662;2023-09-30T12:38:32;6.20;;;1.07;;
64932;SDS011;51446;53.850;10.662;2023-09-30T12:40:58;5.40;;;1.40;;
64932;SDS011;51446;53.850;10.662;2023-09-30T12:43:23;9.37;;;1.70;;
64932;SDS011;51446;53.850;10.662;2023-09-30T12:45:48;9.07;;;1.77;;
64932;SDS011;51446;53.850;10.662;2023-09-30T12:48:14;9.67;;;1.40;;
64932;SDS011;51446;53.850;10.662;2023-09-30T12:50:40;6.32;;;1.10;;
64932;SDS011;51446;53.850;10.662;2023-09-30T12:53:06;7.13;;;1.15;;
64932;SDS011;51446;53.850;10.662;2023-09-30T12:55:31;7.40;;;1.40;;
64932;SDS011;51446;53.850;10.662;2023-09-30T12:57:57;5.32;;;1.27;;
64932;SDS011;51446;53.850;10.662;2023-09-30T13:00:22;8.03;;;1.67;;
64932;SDS011;51446;53.850;10.662;2023-09-30T13:02:49;9.27;;;1.60;;
64932;SDS011;51446;53.850;10.662;2023-09-30T13:05:15;8.20;;;1.60;;
64932;SDS011;51446;53.850;10.662;2023-09-30T13:07:42;8.47;;;1.30;;
64932;SDS011;51446;53.850;10.662;2023-09-30T13:10:07;6.75;;;1.73;;
64932;SDS011;51446;53.850;10.662;2023-09-30T13:12:33;4.00;;;1.00;;
64932;SDS011;51446;53.850;10.662;2023-09-30T13:14:59;5.30;;;1.30;;
64932;SDS011;51446;53.850;10.662;2023-09-30T13:17:24;8.47;;;1.10;;
64932;SDS011;51446;53.850;10.662;2023-09-30T13:19:50;3.47;;;1.10;;
64932;SDS011;51446;53.850;10.662;2023-09-30T13:22:16;8.20;;;1.07;;
64932;SDS011;51446;53.850;10.662;2023-09-30T13:24:41;6.17;;;1.43;;
64932;SDS011;51446;53.850;10.662;2023-09-30T13:27:07;7.77;;;1.30;;
64932;SDS011;51446;53.850;10.662;2023-09-30T13:29:33;6.00;;;1.43;;
64932;SDS011;51446;53.850;10.662;2023-09-30T13:31:58;8.47;;;1.70;;
64932;SDS011;51446;53.850;10.662;2023-09-30T13:34:23;8.33;;;1.80;;
64932;SDS011;51446;53.850;10.662;2023-09-30T13:36:48;8.33;;;1.40;;
64932;SDS011;51446;53.850;10.662;2023-09-30T13:39:14;3.80;;;1.13;;
64932;SDS011;51446;53.850;10.662;2023-09-30T13:41:39;7.20;;;1.60;;
64932;SDS011;51446;53.850;10.662;2023-09-30T13:44:05;8.75;;;1.52;;
64932;SDS011;51446;53.850;10.662;2023-09-30T13:46:30;6.67;;;1.30;;
64932;SDS011;51446;53.850;10.662;2023-09-30T13:48:56;4.50;;;1.27;;
64932;SDS011;51446;53.850;10.662;2023-09-30T13:51:21;7.03;;;1.80;;
64932;SDS011;51446;53.850;10.662;2023-09-30T13:53:47;7.40;;;1.40;;
64932;SDS011;51446;53.850;10.662;2023-09-30T13:56:14;8.45;;;1.52;;
64932;SDS011;51446;53.850;10.662;2023-09-30T13:58:40;6.53;;;1.20;;
64932;SDS011;51446;53.850;10.662;2023-09-30T14:01:07;4.63;;;1.38;;
64932;SDS011;51446;53.850;10.662;2023-09-30T14:03:32;11.60;;;1.70;;
64932;SDS011;51446;53.850;10.662;2023-09-30T14:05:58;7.28;;;1.92;;
64932;SDS011;51446;53.850;10.662;2023-09-30T14:08:24;9.20;;;1.70;;
64932;SDS011;51446;53.850;10.662;2023-09-30T14:10:50;5.25;;;1.38;;
64932;SDS011;51446;53.850;10.662;2023-09-30T14:13:16;6.93;;;1.20;;
64932;SDS011;51446;53.850;10.662;2023-09-30T14:15:42;5.70;;;1.40;;
64932;SDS011;51446;53.850;10.662;2023-09-30T14:18:07;8.73;;;1.70;;
64932;SDS011;51446;53.850;10.662;2023-09-30T14:20:32;7.20;;;1.55;;
64932;SDS011;51446;53.850;10.662;2023-09-30T14:22:59;4.60;;;1.27;;
64932;SDS011;51446;53.850;10.662;2023-09-30T14:25:24;6.38;;;1.60;;
64932;SDS011;51446;53.850;10.662;2023-09-30T14:27:49;6.30;;;1.40;;
64932;SDS011;51446;53.850;10.662;2023-09-30T14:30:15;6.77;;;1.50;;
64932;SDS011;51446;53.850;10.662;2023-09-30T14:32:41;7.88;;;1.50;;
64932;SDS011;51446;53.850;10.662;2023-09-30T14:35:07;7.30;;;2.00;;
64932;SDS011;51446;53.850;10.662;2023-09-30T14:37:34;8.13;;;1.70;;
64932;SDS011;51446;53.850;10.662;2023-09-30T14:40:00;9.03;;;1.60;;
64932;SDS011;51446;53.850;10.662;2023-09-30T14:42:25;9.70;;;2.22;;
64932;SDS011;51446;53.850;10.662;2023-09-30T14:44:50;6.30;;;1.80;;